sensor_id;sensor_type;location;lat;lon;timestamp;pressure;altitude;pressure_sealevel;temperature
69590;BMP180;56792;50.644;17.984;2023-06-22T00:01:22;99862.00;;;20.30
69590;BMP180;56792;50.644;17.984;2023-06-22T00:03:51;99866.20;;;20.30
69590;BMP180;56792;50.644;17.984;2023-06-22T00:06:19;99871.80;;;20.30
69590;BMP180;56792;50.644;17.984;2023-06-22T00:08:47;99873.20;;;20.30
69590;BMP180;56792;50.644;17.984;2023-06-22T00:11:16;99859.40;;;20.30
69590;BMP180;56792;50.644;17.984;2023-06-22T00:13:44;99858.20;;;20.28
69590;BMP180;56792;50.644;17.984;2023-06-22T00:16:12;99861.40;;;20.28
69590;BMP180;56792;50.644;17.984;2023-06-22T00:18:40;99866.20;;;20.22
69590;BMP180;56792;50.644;17.984;2023-06-22T00:21:14;99865.00;;;20.20
69590;BMP180;56792;50.644;17.984;2023-06-22T00:23:43;99866.80;;;20.20
69590;BMP180;56792;50.644;17.984;2023-06-22T00:26:11;99866.40;;;20.20
69590;BMP180;56792;50.644;17.984;2023-06-22T00:28:39;99870.00;;;20.20
69590;BMP180;56792;50.644;17.984;2023-06-22T00:31:07;99869.60;;;20.18
69590;BMP180;56792;50.644;17.984;2023-06-22T00:33:36;99875.40;;;20.14
69590;BMP180;56792;50.644;17.984;2023-06-22T00:36:07;99878.80;;;20.10
69590;BMP180;56792;50.644;17.984;2023-06-22T00:38:35;99884.40;;;20.10
69590;BMP180;56792;50.644;17.984;2023-06-22T00:41:07;99887.80;;;20.12
69590;BMP180;56792;50.644;17.984;2023-06-22T00:43:37;99888.40;;;20.16
69590;BMP180;56792;50.644;17.984;2023-06-22T00:46:05;99886.00;;;20.16
69590;BMP180;56792;50.644;17.984;2023-06-22T00:48:33;99892.60;;;20.20
69590;BMP180;56792;50.644;17.984;2023-06-22T00:51:04;99894.20;;;20.16
69590;BMP180;56792;50.644;17.984;2023-06-22T00:53:33;99893.00;;;20.18
69590;BMP180;56792;50.644;17.984;2023-06-22T00:56:03;99895.20;;;20.12
69590;BMP180;56792;50.644;17.984;2023-06-22T00:58:33;99892.60;;;20.16
69590;BMP180;56792;50.644;17.984;2023-06-22T01:01:01;99892.00;;;20.10
69590;BMP180;56792;50.644;17.984;2023-06-22T01:03:30;99897.20;;;20.10
69590;BMP180;56792;50.644;17.984;2023-06-22T01:06:08;99897.00;;;20.10
69590;BMP180;56792;50.644;17.984;2023-06-22T01:08:49;99898.20;;;20.10
69590;BMP180;56792;50.644;17.984;2023-06-22T01:11:25;99896.40;;;20.10
69590;BMP180;56792;50.644;17.984;2023-06-22T01:14:04;99905.00;;;20.10
69590;BMP180;56792;50.644;17.984;2023-06-22T01:16:40;99912.00;;;20.10
69590;BMP180;56792;50.644;17.984;2023-06-22T01:19:25;99905.20;;;20.10
69590;BMP180;56792;50.644;17.984;2023-06-22T01:21:58;99900.60;;;20.08
69590;BMP180;56792;50.644;17.984;2023-06-22T01:24:41;99902.20;;;20.02
69590;BMP180;56792;50.644;17.984;2023-06-22T01:27:28;99902.20;;;20.00
69590;BMP180;56792;50.644;17.984;2023-06-22T01:30:00;99903.20;;;20.00
69590;BMP180;56792;50.644;17.984;2023-06-22T01:32:33;99902.20;;;20.00
69590;BMP180;56792;50.644;17.984;2023-06-22T01:35:06;99906.40;;;20.00
69590;BMP180;56792;50.644;17.984;2023-06-22T01:37:37;99909.40;;;20.00
69590;BMP180;56792;50.644;17.984;2023-06-22T01:40:09;99912.20;;;19.90
69590;BMP180;56792;50.644;17.984;2023-06-22T01:42:38;99910.60;;;19.90
69590;BMP180;56792;50.644;17.984;2023-06-22T01:45:10;99911.80;;;19.90
69590;BMP180;56792;50.644;17.984;2023-06-22T01:47:39;99913.60;;;19.90
69590;BMP180;56792;50.644;17.984;2023-06-22T01:50:10;99917.60;;;19.80
69590;BMP180;56792;50.644;17.984;2023-06-22T01:52:38;99927.40;;;19.80
69590;BMP180;56792;50.644;17.984;2023-06-22T01:55:08;99922.20;;;19.80
69590;BMP180;56792;50.644;17.984;2023-06-22T01:57:37;99918.60;;;19.70
69590;BMP180;56792;50.644;17.984;2023-06-22T02:00:13;99928.00;;;19.70
69590;BMP180;56792;50.644;17.984;2023-06-22T02:02:49;99926.20;;;19.70
69590;BMP180;56792;50.644;17.984;2023-06-22T02:05:20;99934.00;;;19.70
69590;BMP180;56792;50.644;17.984;2023-06-22T02:07:59;99933.80;;;19.66
69590;BMP180;56792;50.644;17.984;2023-06-22T02:10:29;99940.40;;;19.60
69590;BMP180;56792;50.644;17.984;2023-06-22T02:13:01;99942.40;;;19.60
69590;BMP180;56792;50.644;17.984;2023-06-22T02:15:31;99940.80;;;19.60
69590;BMP180;56792;50.644;17.984;2023-06-22T02:18:00;99945.40;;;19.60
69590;BMP180;56792;50.644;17.984;2023-06-22T02:20:28;99946.60;;;19.60
69590;BMP180;56792;50.644;17.984;2023-06-22T02:22:58;99946.40;;;19.60
69590;BMP180;56792;50.644;17.984;2023-06-22T02:25:26;99941.20;;;19.60
69590;BMP180;56792;50.644;17.984;2023-06-22T02:27:54;99942.60;;;19.60
69590;BMP180;56792;50.644;17.984;2023-06-22T02:30:22;99943.60;;;19.60
69590;BMP180;56792;50.644;17.984;2023-06-22T02:32:51;99947.80;;;19.60
69590;BMP180;56792;50.644;17.984;2023-06-22T02:35:26;99944.20;;;19.60
69590;BMP180;56792;50.644;17.984;2023-06-22T02:37:54;99950.40;;;19.60
69590;BMP180;56792;50.644;17.984;2023-06-22T02:40:23;99963.60;;;19.62
69590;BMP180;56792;50.644;17.984;2023-06-22T02:42:51;99966.20;;;19.60
69590;BMP180;56792;50.644;17.984;2023-06-22T02:45:19;99970.00;;;19.64
69590;BMP180;56792;50.644;17.984;2023-06-22T02:47:48;99970.20;;;19.60
69590;BMP180;56792;50.644;17.984;2023-06-22T02:50:17;99972.00;;;19.60
69590;BMP180;56792;50.644;17.984;2023-06-22T02:52:46;99967.20;;;19.60
69590;BMP180;56792;50.644;17.984;2023-06-22T02:55:15;99969.40;;;19.62
69590;BMP180;56792;50.644;17.984;2023-06-22T02:57:45;99963.80;;;19.60
69590;BMP180;56792;50.644;17.984;2023-06-22T03:00:15;99965.20;;;19.64
69590;BMP180;56792;50.644;17.984;2023-06-22T03:02:46;99964.60;;;19.64
69590;BMP180;56792;50.644;17.984;2023-06-22T03:05:15;99964.20;;;19.66
69590;BMP180;56792;50.644;17.984;2023-06-22T03:07:46;99964.40;;;19.68
69590;BMP180;56792;50.644;17.984;2023-06-22T03:10:15;99964.00;;;19.70
69590;BMP180;56792;50.644;17.984;2023-06-22T03:12:44;99961.20;;;19.70
69590;BMP180;56792;50.644;17.984;2023-06-22T03:15:14;99960.40;;;19.70
69590;BMP180;56792;50.644;17.984;2023-06-22T03:17:42;99955.80;;;19.70
69590;BMP180;56792;50.644;17.984;2023-06-22T03:20:11;99957.40;;;19.72
69590;BMP180;56792;50.644;17.984;2023-06-22T03:22:41;99964.60;;;19.80
69590;BMP180;56792;50.644;17.984;2023-06-22T03:25:10;99969.00;;;19.80
69590;BMP180;56792;50.644;17.984;2023-06-22T03:27:42;99971.40;;;19.80
69590;BMP180;56792;50.644;17.984;2023-06-22T03:30:13;99974.40;;;19.84
69590;BMP180;56792;50.644;17.984;2023-06-22T03:32:41;99979.60;;;19.90
69590;BMP180;56792;50.644;17.984;2023-06-22T03:35:11;99978.80;;;19.90
69590;BMP180;56792;50.644;17.984;2023-06-22T03:37:41;99972.00;;;19.90
69590;BMP180;56792;50.644;17.984;2023-06-22T03:40:12;99971.60;;;19.90
69590;BMP180;56792;50.644;17.984;2023-06-22T03:42:41;99975.00;;;20.00
69590;BMP180;56792;50.644;17.984;2023-06-22T03:45:11;99979.40;;;20.00
69590;BMP180;56792;50.644;17.984;2023-06-22T03:47:40;99982.60;;;20.00
69590;BMP180;56792;50.644;17.984;2023-06-22T03:50:10;99982.80;;;20.00
69590;BMP180;56792;50.644;17.984;2023-06-22T03:52:41;99983.00;;;20.00
69590;BMP180;56792;50.644;17.984;2023-06-22T03:55:10;99988.20;;;20.08
69590;BMP180;56792;50.644;17.984;2023-06-22T03:57:38;99992.80;;;20.10
69590;BMP180;56792;50.644;17.984;2023-06-22T04:00:10;99998.60;;;20.10
69590;BMP180;56792;50.644;17.984;2023-06-22T04:02:42;100006.40;;;20.16
69590;BMP180;56792;50.644;17.984;2023-06-22T04:05:10;100013.60;;;20.20
69590;BMP180;56792;50.644;17.984;2023-06-22T04:07:39;100020.80;;;20.20
69590;BMP180;56792;50.644;17.984;2023-06-22T04:10:09;100022.40;;;20.20
69590;BMP180;56792;50.644;17.984;2023-06-22T04:12:37;100033.40;;;20.20
69590;BMP180;56792;50.644;17.984;2023-06-22T04:15:08;100039.40;;;20.30
69590;BMP180;56792;50.644;17.984;2023-06-22T04:17:37;100046.20;;;20.30
69590;BMP180;56792;50.644;17.984;2023-06-22T04:20:08;100047.80;;;20.30
69590;BMP180;56792;50.644;17.984;2023-06-22T04:22:36;100046.00;;;20.40
69590;BMP180;56792;50.644;17.984;2023-06-22T04:25:06;100045.60;;;20.40
69590;BMP180;56792;50.644;17.984;2023-06-22T04:27:35;100046.20;;;20.44
69590;BMP180;56792;50.644;17.984;2023-06-22T04:30:07;100045.80;;;20.50
69590;BMP180;56792;50.644;17.984;2023-06-22T04:32:36;100043.40;;;20.50
69590;BMP180;56792;50.644;17.984;2023-06-22T04:35:05;100048.40;;;20.60
69590;BMP180;56792;50.644;17.984;2023-06-22T04:37:34;100052.20;;;20.60
69590;BMP180;56792;50.644;17.984;2023-06-22T04:40:03;100052.20;;;20.66
69590;BMP180;56792;50.644;17.984;2023-06-22T04:42:34;100058.40;;;20.70
69590;BMP180;56792;50.644;17.984;2023-06-22T04:45:05;100060.40;;;20.74
69590;BMP180;56792;50.644;17.984;2023-06-22T04:47:33;100058.80;;;20.80
69590;BMP180;56792;50.644;17.984;2023-06-22T04:50:02;100057.60;;;20.90
69590;BMP180;56792;50.644;17.984;2023-06-22T04:52:33;100055.20;;;20.90
69590;BMP180;56792;50.644;17.984;2023-06-22T04:55:01;100058.20;;;20.94
69590;BMP180;56792;50.644;17.984;2023-06-22T04:57:31;100053.80;;;21.00
69590;BMP180;56792;50.644;17.984;2023-06-22T05:00:01;100054.20;;;21.00
69590;BMP180;56792;50.644;17.984;2023-06-22T05:02:40;100047.60;;;21.10
69590;BMP180;56792;50.644;17.984;2023-06-22T05:05:09;100052.80;;;21.10
69590;BMP180;56792;50.644;17.984;2023-06-22T05:07:43;100048.20;;;21.20
69590;BMP180;56792;50.644;17.984;2023-06-22T05:10:12;100042.40;;;21.20
69590;BMP180;56792;50.644;17.984;2023-06-22T05:12:41;100042.80;;;21.20
69590;BMP180;56792;50.644;17.984;2023-06-22T05:15:10;100044.40;;;21.30
69590;BMP180;56792;50.644;17.984;2023-06-22T05:17:39;100041.60;;;21.30
69590;BMP180;56792;50.644;17.984;2023-06-22T05:20:12;100040.40;;;21.40
69590;BMP180;56792;50.644;17.984;2023-06-22T05:22:41;100039.80;;;21.40
69590;BMP180;56792;50.644;17.984;2023-06-22T05:25:11;100039.00;;;21.50
69590;BMP180;56792;50.644;17.984;2023-06-22T05:27:40;100039.80;;;21.50
69590;BMP180;56792;50.644;17.984;2023-06-22T05:30:10;100046.60;;;21.52
69590;BMP180;56792;50.644;17.984;2023-06-22T05:32:39;100047.00;;;21.60
69590;BMP180;56792;50.644;17.984;2023-06-22T05:35:09;100050.60;;;21.60
69590;BMP180;56792;50.644;17.984;2023-06-22T05:37:37;100046.60;;;21.70
69590;BMP180;56792;50.644;17.984;2023-06-22T05:40:09;100048.40;;;21.70
69590;BMP180;56792;50.644;17.984;2023-06-22T05:42:38;100042.80;;;21.80
69590;BMP180;56792;50.644;17.984;2023-06-22T05:45:08;100043.60;;;21.84
69590;BMP180;56792;50.644;17.984;2023-06-22T05:47:37;100044.60;;;21.90
69590;BMP180;56792;50.644;17.984;2023-06-22T05:50:07;100046.60;;;22.00
69590;BMP180;56792;50.644;17.984;2023-06-22T05:52:36;100047.60;;;22.02
69590;BMP180;56792;50.644;17.984;2023-06-22T05:55:06;100047.40;;;22.10
69590;BMP180;56792;50.644;17.984;2023-06-22T05:57:34;100047.60;;;22.20
69590;BMP180;56792;50.644;17.984;2023-06-22T06:00:04;100049.80;;;22.24
69590;BMP180;56792;50.644;17.984;2023-06-22T06:02:34;100047.20;;;22.30
69590;BMP180;56792;50.644;17.984;2023-06-22T06:05:04;100051.40;;;22.40
69590;BMP180;56792;50.644;17.984;2023-06-22T06:07:32;100054.60;;;22.40
69590;BMP180;56792;50.644;17.984;2023-06-22T06:10:02;100061.40;;;22.50
69590;BMP180;56792;50.644;17.984;2023-06-22T06:12:30;100061.20;;;22.60
69590;BMP180;56792;50.644;17.984;2023-06-22T06:14:58;100057.80;;;22.70
69590;BMP180;56792;50.644;17.984;2023-06-22T06:17:26;100060.20;;;22.72
69590;BMP180;56792;50.644;17.984;2023-06-22T06:19:55;100061.60;;;22.82
69590;BMP180;56792;50.644;17.984;2023-06-22T06:22:23;100060.80;;;22.90
69590;BMP180;56792;50.644;17.984;2023-06-22T06:24:51;100062.60;;;23.00
69590;BMP180;56792;50.644;17.984;2023-06-22T06:27:19;100060.40;;;23.10
69590;BMP180;56792;50.644;17.984;2023-06-22T06:29:48;100063.00;;;23.20
69590;BMP180;56792;50.644;17.984;2023-06-22T06:32:16;100068.40;;;23.30
69590;BMP180;56792;50.644;17.984;2023-06-22T06:34:44;100066.80;;;23.40
69590;BMP180;56792;50.644;17.984;2023-06-22T06:37:12;100065.00;;;23.50
69590;BMP180;56792;50.644;17.984;2023-06-22T06:39:40;100059.80;;;23.60
69590;BMP180;56792;50.644;17.984;2023-06-22T06:42:09;100059.20;;;23.70
69590;BMP180;56792;50.644;17.984;2023-06-22T06:44:38;100057.20;;;23.78
69590;BMP180;56792;50.644;17.984;2023-06-22T06:47:07;100050.80;;;23.90
69590;BMP180;56792;50.644;17.984;2023-06-22T06:49:35;100047.80;;;23.98
69590;BMP180;56792;50.644;17.984;2023-06-22T06:52:05;100049.00;;;24.10
69590;BMP180;56792;50.644;17.984;2023-06-22T06:54:34;100054.00;;;24.20
69590;BMP180;56792;50.644;17.984;2023-06-22T06:57:02;100052.80;;;24.30
69590;BMP180;56792;50.644;17.984;2023-06-22T06:59:31;100058.00;;;24.40
69590;BMP180;56792;50.644;17.984;2023-06-22T07:01:59;100052.80;;;24.50
69590;BMP180;56792;50.644;17.984;2023-06-22T07:04:28;100053.60;;;24.70
69590;BMP180;56792;50.644;17.984;2023-06-22T07:06:58;100057.20;;;24.80
69590;BMP180;56792;50.644;17.984;2023-06-22T07:09:27;100057.80;;;25.00
69590;BMP180;56792;50.644;17.984;2023-06-22T07:11:55;100056.20;;;25.10
69590;BMP180;56792;50.644;17.984;2023-06-22T07:14:23;100059.40;;;25.30
69590;BMP180;56792;50.644;17.984;2023-06-22T07:16:51;100064.80;;;25.40
69590;BMP180;56792;50.644;17.984;2023-06-22T07:19:27;100062.20;;;25.50
69590;BMP180;56792;50.644;17.984;2023-06-22T07:21:55;100064.20;;;25.70
69590;BMP180;56792;50.644;17.984;2023-06-22T07:24:24;100066.00;;;25.80
69590;BMP180;56792;50.644;17.984;2023-06-22T07:26:53;100065.20;;;25.90
69590;BMP180;56792;50.644;17.984;2023-06-22T07:29:21;100063.60;;;26.06
69590;BMP180;56792;50.644;17.984;2023-06-22T07:31:51;100063.20;;;26.20
69590;BMP180;56792;50.644;17.984;2023-06-22T07:34:20;100072.00;;;26.30
69590;BMP180;56792;50.644;17.984;2023-06-22T07:36:48;100080.80;;;26.48
69590;BMP180;56792;50.644;17.984;2023-06-22T07:39:16;100077.20;;;26.52
69590;BMP180;56792;50.644;17.984;2023-06-22T07:41:44;100079.00;;;26.70
69590;BMP180;56792;50.644;17.984;2023-06-22T07:44:13;100088.20;;;26.80
69590;BMP180;56792;50.644;17.984;2023-06-22T07:46:41;100093.20;;;27.00
69590;BMP180;56792;50.644;17.984;2023-06-22T07:49:09;100101.20;;;27.10
69590;BMP180;56792;50.644;17.984;2023-06-22T07:51:37;100103.00;;;27.26
69590;BMP180;56792;50.644;17.984;2023-06-22T07:54:06;100105.00;;;27.38
69590;BMP180;56792;50.644;17.984;2023-06-22T07:56:35;100109.00;;;27.50
69590;BMP180;56792;50.644;17.984;2023-06-22T07:59:04;100107.00;;;27.58
69590;BMP180;56792;50.644;17.984;2023-06-22T08:01:32;100112.40;;;27.70
69590;BMP180;56792;50.644;17.984;2023-06-22T08:04:00;100107.80;;;27.86
69590;BMP180;56792;50.644;17.984;2023-06-22T08:06:31;100104.00;;;28.00
69590;BMP180;56792;50.644;17.984;2023-06-22T08:08:59;100111.80;;;28.10
69590;BMP180;56792;50.644;17.984;2023-06-22T08:11:27;100114.20;;;28.24
69590;BMP180;56792;50.644;17.984;2023-06-22T08:13:56;100105.80;;;28.40
69590;BMP180;56792;50.644;17.984;2023-06-22T08:16:26;100102.40;;;28.50
69590;BMP180;56792;50.644;17.984;2023-06-22T08:18:54;100105.00;;;28.54
69590;BMP180;56792;50.644;17.984;2023-06-22T08:21:22;100109.60;;;28.70
69590;BMP180;56792;50.644;17.984;2023-06-22T08:23:51;100113.00;;;28.90
69590;BMP180;56792;50.644;17.984;2023-06-22T08:26:19;100114.00;;;29.08
69590;BMP180;56792;50.644;17.984;2023-06-22T08:28:47;100114.80;;;29.26
69590;BMP180;56792;50.644;17.984;2023-06-22T08:31:16;100112.20;;;29.40
69590;BMP180;56792;50.644;17.984;2023-06-22T08:33:44;100119.80;;;29.50
69590;BMP180;56792;50.644;17.984;2023-06-22T08:36:13;100119.00;;;29.70
69590;BMP180;56792;50.644;17.984;2023-06-22T08:38:42;100116.60;;;29.88
69590;BMP180;56792;50.644;17.984;2023-06-22T08:41:10;100110.40;;;29.90
69590;BMP180;56792;50.644;17.984;2023-06-22T08:43:38;100112.80;;;29.90
69590;BMP180;56792;50.644;17.984;2023-06-22T08:46:06;100114.40;;;30.02
69590;BMP180;56792;50.644;17.984;2023-06-22T08:48:35;100111.80;;;30.10
69590;BMP180;56792;50.644;17.984;2023-06-22T08:51:04;100106.20;;;30.10
69590;BMP180;56792;50.644;17.984;2023-06-22T08:53:32;100106.80;;;30.20
69590;BMP180;56792;50.644;17.984;2023-06-22T08:56:02;100103.80;;;30.30
69590;BMP180;56792;50.644;17.984;2023-06-22T08:58:30;100104.60;;;30.50
69590;BMP180;56792;50.644;17.984;2023-06-22T09:00:59;100096.80;;;30.50
69590;BMP180;56792;50.644;17.984;2023-06-22T09:03:28;100090.00;;;30.64
69590;BMP180;56792;50.644;17.984;2023-06-22T09:05:57;100095.80;;;30.80
69590;BMP180;56792;50.644;17.984;2023-06-22T09:08:25;100100.20;;;30.90
69590;BMP180;56792;50.644;17.984;2023-06-22T09:10:53;100093.20;;;31.00
69590;BMP180;56792;50.644;17.984;2023-06-22T09:13:22;100089.40;;;31.20
69590;BMP180;56792;50.644;17.984;2023-06-22T09:15:50;100090.20;;;31.38
69590;BMP180;56792;50.644;17.984;2023-06-22T09:18:18;100080.00;;;31.60
69590;BMP180;56792;50.644;17.984;2023-06-22T09:20:47;100079.00;;;31.70
69590;BMP180;56792;50.644;17.984;2023-06-22T09:23:16;100069.00;;;31.80
69590;BMP180;56792;50.644;17.984;2023-06-22T09:25:44;100066.80;;;31.96
69590;BMP180;56792;50.644;17.984;2023-06-22T09:28:14;100063.20;;;32.00
69590;BMP180;56792;50.644;17.984;2023-06-22T09:30:44;100057.60;;;32.00
69590;BMP180;56792;50.644;17.984;2023-06-22T09:33:12;100057.00;;;32.10
69590;BMP180;56792;50.644;17.984;2023-06-22T09:35:41;100057.20;;;32.10
69590;BMP180;56792;50.644;17.984;2023-06-22T09:38:09;100056.80;;;32.20
69590;BMP180;56792;50.644;17.984;2023-06-22T09:40:37;100051.40;;;32.22
69590;BMP180;56792;50.644;17.984;2023-06-22T09:43:07;100054.80;;;32.30
69590;BMP180;56792;50.644;17.984;2023-06-22T09:45:35;100049.40;;;32.40
69590;BMP180;56792;50.644;17.984;2023-06-22T09:48:04;100048.60;;;32.60
69590;BMP180;56792;50.644;17.984;2023-06-22T09:50:32;100047.80;;;32.60
69590;BMP180;56792;50.644;17.984;2023-06-22T09:53:01;100047.20;;;32.60
69590;BMP180;56792;50.644;17.984;2023-06-22T09:55:29;100053.60;;;32.80
69590;BMP180;56792;50.644;17.984;2023-06-22T09:57:58;100051.80;;;32.70
69590;BMP180;56792;50.644;17.984;2023-06-22T10:00:26;100054.00;;;32.72
69590;BMP180;56792;50.644;17.984;2023-06-22T10:02:54;100056.00;;;32.90
69590;BMP180;56792;50.644;17.984;2023-06-22T10:05:23;100058.40;;;33.00
69590;BMP180;56792;50.644;17.984;2023-06-22T10:07:52;100060.00;;;33.00
69590;BMP180;56792;50.644;17.984;2023-06-22T10:10:20;100056.40;;;33.10
69590;BMP180;56792;50.644;17.984;2023-06-22T10:12:57;100054.20;;;33.10
69590;BMP180;56792;50.644;17.984;2023-06-22T10:15:25;100053.40;;;33.20
69590;BMP180;56792;50.644;17.984;2023-06-22T10:17:54;100058.60;;;33.24
69590;BMP180;56792;50.644;17.984;2023-06-22T10:20:23;100055.00;;;33.40
69590;BMP180;56792;50.644;17.984;2023-06-22T10:22:51;100064.20;;;33.60
69590;BMP180;56792;50.644;17.984;2023-06-22T10:25:21;100061.60;;;33.70
69590;BMP180;56792;50.644;17.984;2023-06-22T10:27:50;100062.80;;;33.80
69590;BMP180;56792;50.644;17.984;2023-06-22T10:30:19;100074.80;;;33.98
69590;BMP180;56792;50.644;17.984;2023-06-22T10:32:47;100069.00;;;34.20
69590;BMP180;56792;50.644;17.984;2023-06-22T10:35:16;100064.00;;;34.10
69590;BMP180;56792;50.644;17.984;2023-06-22T10:37:45;100061.20;;;34.20
69590;BMP180;56792;50.644;17.984;2023-06-22T10:40:16;100053.80;;;34.20
69590;BMP180;56792;50.644;17.984;2023-06-22T10:42:44;100054.60;;;34.30
69590;BMP180;56792;50.644;17.984;2023-06-22T10:45:13;100053.00;;;34.40
69590;BMP180;56792;50.644;17.984;2023-06-22T10:47:41;100053.80;;;34.10
69590;BMP180;56792;50.644;17.984;2023-06-22T10:50:11;100051.80;;;34.10
69590;BMP180;56792;50.644;17.984;2023-06-22T10:52:39;100048.60;;;34.10
69590;BMP180;56792;50.644;17.984;2023-06-22T10:55:10;100045.20;;;34.10
69590;BMP180;56792;50.644;17.984;2023-06-22T10:57:39;100039.60;;;33.90
69590;BMP180;56792;50.644;17.984;2023-06-22T11:00:13;100044.40;;;33.88
69590;BMP180;56792;50.644;17.984;2023-06-22T11:02:42;100043.20;;;33.80
69590;BMP180;56792;50.644;17.984;2023-06-22T11:05:10;100042.80;;;33.70
69590;BMP180;56792;50.644;17.984;2023-06-22T11:07:42;100041.60;;;33.60
69590;BMP180;56792;50.644;17.984;2023-06-22T11:10:11;100044.20;;;33.60
69590;BMP180;56792;50.644;17.984;2023-06-22T11:12:40;100044.80;;;33.70
69590;BMP180;56792;50.644;17.984;2023-06-22T11:15:10;100036.80;;;33.80
69590;BMP180;56792;50.644;17.984;2023-06-22T11:17:38;100028.40;;;33.76
69590;BMP180;56792;50.644;17.984;2023-06-22T11:20:09;100023.40;;;33.70
69590;BMP180;56792;50.644;17.984;2023-06-22T11:22:39;100017.00;;;33.72
69590;BMP180;56792;50.644;17.984;2023-06-22T11:25:09;100012.20;;;33.90
69590;BMP180;56792;50.644;17.984;2023-06-22T11:27:39;100014.60;;;34.10
69590;BMP180;56792;50.644;17.984;2023-06-22T11:30:10;100009.20;;;34.24
69590;BMP180;56792;50.644;17.984;2023-06-22T11:32:38;100004.20;;;34.38
69590;BMP180;56792;50.644;17.984;2023-06-22T11:35:07;100002.20;;;34.20
69590;BMP180;56792;50.644;17.984;2023-06-22T11:37:36;100001.00;;;34.20
69590;BMP180;56792;50.644;17.984;2023-06-22T11:40:06;99999.60;;;34.22
69590;BMP180;56792;50.644;17.984;2023-06-22T11:42:36;99992.40;;;34.40
69590;BMP180;56792;50.644;17.984;2023-06-22T11:45:07;99991.60;;;34.50
69590;BMP180;56792;50.644;17.984;2023-06-22T11:47:36;99989.20;;;34.80
69590;BMP180;56792;50.644;17.984;2023-06-22T11:50:07;99991.80;;;34.90
69590;BMP180;56792;50.644;17.984;2023-06-22T11:52:35;99991.20;;;35.00
69590;BMP180;56792;50.644;17.984;2023-06-22T11:55:05;99989.80;;;35.00
69590;BMP180;56792;50.644;17.984;2023-06-22T11:57:36;99989.20;;;35.00
69590;BMP180;56792;50.644;17.984;2023-06-22T12:00:07;99988.80;;;34.80
69590;BMP180;56792;50.644;17.984;2023-06-22T12:02:44;99985.60;;;34.60
69590;BMP180;56792;50.644;17.984;2023-06-22T12:05:13;99975.80;;;34.42
69590;BMP180;56792;50.644;17.984;2023-06-22T12:07:41;99970.60;;;34.20
69590;BMP180;56792;50.644;17.984;2023-06-22T12:10:10;99973.00;;;34.20
69590;BMP180;56792;50.644;17.984;2023-06-22T12:12:38;99976.60;;;34.30
69590;BMP180;56792;50.644;17.984;2023-06-22T12:15:08;99971.20;;;34.22
69590;BMP180;56792;50.644;17.984;2023-06-22T12:17:37;99973.60;;;34.30
69590;BMP180;56792;50.644;17.984;2023-06-22T12:20:08;99974.80;;;34.40
69590;BMP180;56792;50.644;17.984;2023-06-22T12:22:37;99976.80;;;34.50
69590;BMP180;56792;50.644;17.984;2023-06-22T12:25:07;99975.00;;;34.40
69590;BMP180;56792;50.644;17.984;2023-06-22T12:27:36;99974.20;;;34.20
69590;BMP180;56792;50.644;17.984;2023-06-22T12:30:08;99967.60;;;34.10
69590;BMP180;56792;50.644;17.984;2023-06-22T12:32:36;99963.40;;;34.10
69590;BMP180;56792;50.644;17.984;2023-06-22T12:35:07;99958.80;;;34.00
69590;BMP180;56792;50.644;17.984;2023-06-22T12:37:39;99962.40;;;34.10
69590;BMP180;56792;50.644;17.984;2023-06-22T12:40:11;99959.80;;;34.30
69590;BMP180;56792;50.644;17.984;2023-06-22T12:42:39;99957.00;;;34.30
69590;BMP180;56792;50.644;17.984;2023-06-22T12:45:10;99957.20;;;34.50
69590;BMP180;56792;50.644;17.984;2023-06-22T12:47:38;99951.40;;;34.60
69590;BMP180;56792;50.644;17.984;2023-06-22T12:50:09;99950.40;;;34.60
69590;BMP180;56792;50.644;17.984;2023-06-22T12:52:39;99947.00;;;34.60
69590;BMP180;56792;50.644;17.984;2023-06-22T12:55:09;99945.20;;;34.60
69590;BMP180;56792;50.644;17.984;2023-06-22T12:57:38;99946.00;;;34.60
69590;BMP180;56792;50.644;17.984;2023-06-22T13:00:12;99940.40;;;34.70
69590;BMP180;56792;50.644;17.984;2023-06-22T13:02:40;99938.20;;;34.78
69590;BMP180;56792;50.644;17.984;2023-06-22T13:05:10;99935.80;;;34.80
69590;BMP180;56792;50.644;17.984;2023-06-22T13:07:38;99930.40;;;34.90
69590;BMP180;56792;50.644;17.984;2023-06-22T13:10:09;99931.40;;;35.00
69590;BMP180;56792;50.644;17.984;2023-06-22T13:12:37;99928.80;;;34.90
69590;BMP180;56792;50.644;17.984;2023-06-22T13:15:08;99930.40;;;34.90
69590;BMP180;56792;50.644;17.984;2023-06-22T13:17:36;99932.20;;;34.92
69590;BMP180;56792;50.644;17.984;2023-06-22T13:20:06;99925.00;;;34.70
69590;BMP180;56792;50.644;17.984;2023-06-22T13:22:36;99919.40;;;34.60
69590;BMP180;56792;50.644;17.984;2023-06-22T13:25:09;99915.40;;;34.68
69590;BMP180;56792;50.644;17.984;2023-06-22T13:27:39;99919.20;;;34.60
69590;BMP180;56792;50.644;17.984;2023-06-22T13:30:10;99920.00;;;34.60
69590;BMP180;56792;50.644;17.984;2023-06-22T13:32:38;99918.20;;;34.60
69590;BMP180;56792;50.644;17.984;2023-06-22T13:35:10;99916.20;;;34.50
69590;BMP180;56792;50.644;17.984;2023-06-22T13:37:38;99916.80;;;34.50
69590;BMP180;56792;50.644;17.984;2023-06-22T13:40:09;99916.80;;;34.40
69590;BMP180;56792;50.644;17.984;2023-06-22T13:42:37;99917.60;;;34.20
69590;BMP180;56792;50.644;17.984;2023-06-22T13:45:08;99911.00;;;34.00
69590;BMP180;56792;50.644;17.984;2023-06-22T13:47:37;99910.60;;;34.00
69590;BMP180;56792;50.644;17.984;2023-06-22T13:50:08;99910.00;;;34.10
69590;BMP180;56792;50.644;17.984;2023-06-22T13:52:36;99911.80;;;34.10
69590;BMP180;56792;50.644;17.984;2023-06-22T13:55:05;99905.60;;;34.08
69590;BMP180;56792;50.644;17.984;2023-06-22T13:57:35;99904.80;;;34.08
69590;BMP180;56792;50.644;17.984;2023-06-22T14:00:04;99904.20;;;34.10
69590;BMP180;56792;50.644;17.984;2023-06-22T14:02:39;99905.40;;;34.00